Terminal Aerodrome Forecast
Issued by NWS Shreveport, LA

Home | Current Version | Previous Version | Text Only | Print | Product List | Glossary On
Versions: 1 2 3 4 5 6 7 8 9 10 11 12 13 14 15
703
FTUS44 KSHV 221738
TAFTYR
TAF
KTYR 221738Z 2218/2318 23006KT P6SM FEW250
     FM221900 18007KT P6SM FEW045 SCT250
     FM230000 16005KT P6SM FEW250=

USA.gov is the U.S. government's official web portal to all federal, state and local government web resources and services.